Time;durP1;ratioP1;P1;durP2;ratioP2;P2;SDS_P1;SDS_P2;PMS_P1;PMS_P2;Temp;Humidity;BMP_temperature;BMP_pressure;BME280_temperature;BME280_humidity;BME280_pressure;Samples;Min_cycle;Max_cycle;Signal;HPM_P1;HPM_P2
2021/12/26 00:00:31;;;;;;;3.40;1.92;;;;;;;-4.59;66.15;100970.69;5066925;28;20027;-63
2021/12/26 00:02:57;;;;;;;6.57;2.30;;;;;;;-4.68;65.78;100975.53;5065338;28;20029;-64
2021/12/26 00:05:24;;;;;;;2.03;1.33;;;;;;;-4.72;65.34;100976.28;5067274;28;20025;-64
2021/12/26 00:07:49;;;;;;;3.47;1.95;;;;;;;-4.77;65.83;100978.69;5067119;28;20028;-65
2021/12/26 00:10:17;;;;;;;6.28;2.17;;;;;;;-4.78;66.12;100982.09;5060247;28;20097;-62
2021/12/26 00:12:42;;;;;;;2.13;1.80;;;;;;;-4.82;65.92;100981.13;5070397;28;20044;-65
2021/12/26 00:15:08;;;;;;;4.90;2.20;;;;;;;-4.85;66.32;100982.75;5065816;28;20048;-65
2021/12/26 00:17:34;;;;;;;2.05;1.70;;;;;;;-4.86;66.13;100966.44;5065940;28;20479;-65
2021/12/26 00:20:00;;;;;;;4.20;2.28;;;;;;;-4.93;66.01;100967.06;5066279;28;20061;-66
2021/12/26 00:22:25;;;;;;;4.97;1.98;;;;;;;-4.93;66.50;100967.06;5066855;28;20028;-65
2021/12/26 00:24:51;;;;;;;2.38;1.70;;;;;;;-4.96;66.60;100962.69;5065979;28;20495;-65
2021/12/26 00:27:19;;;;;;;2.80;1.80;;;;;;;-5.01;66.91;100973.63;5066671;28;20021;-64
2021/12/26 00:29:45;;;;;;;3.05;1.88;;;;;;;-5.02;66.77;100982.19;5066321;28;20025;-65
2021/12/26 00:32:10;;;;;;;2.53;1.70;;;;;;;-4.99;66.74;100982.28;5055845;28;20052;-65
2021/12/26 00:34:37;;;;;;;3.45;1.65;;;;;;;-5.00;66.71;100980.53;5060747;28;20553;-64
2021/12/26 00:37:03;;;;;;;2.88;1.95;;;;;;;-4.99;66.41;100984.84;5063227;28;20424;-64
2021/12/26 00:39:28;;;;;;;3.00;1.80;;;;;;;-4.98;66.21;100984.03;5085520;28;20077;-66
2021/12/26 00:41:53;;;;;;;3.25;2.08;;;;;;;-4.91;66.37;100991.09;5075965;28;20029;-64
2021/12/26 00:44:19;;;;;;;3.33;3.03;;;;;;;-4.92;66.25;100979.09;5058734;28;20021;-65
2021/12/26 00:46:44;;;;;;;3.50;2.00;;;;;;;-4.86;67.27;100974.16;5052244;28;20037;-60
2021/12/26 00:49:10;;;;;;;2.80;1.70;;;;;;;-4.85;66.50;100977.59;5046894;28;20033;-64
2021/12/26 00:51:35;;;;;;;4.22;2.00;;;;;;;-4.85;66.73;100973.31;5053609;28;20441;-64
2021/12/26 00:54:00;;;;;;;2.28;1.65;;;;;;;-4.83;66.83;100973.34;5054777;28;20453;-63
2021/12/26 00:56:26;;;;;;;3.80;1.70;;;;;;;-4.87;66.37;100967.25;5066662;28;20206;-63
2021/12/26 00:58:51;;;;;;;5.35;2.00;;;;;;;-4.75;67.12;100971.03;5065928;28;20035;-65
2021/12/26 01:01:17;;;;;;;3.45;2.00;;;;;;;-4.75;66.48;100965.88;5063686;28;20064;-64
2021/12/26 01:03:43;;;;;;;2.40;1.92;;;;;;;-4.77;66.25;100965.84;5066773;28;20115;-64
2021/12/26 01:06:08;;;;;;;2.13;1.80;;;;;;;-4.78;66.40;100971.81;5065355;28;20451;-65
2021/12/26 01:08:38;;;;;;;2.13;1.65;;;;;;;-4.73;66.32;100967.69;5066337;28;20548;-65
2021/12/26 01:11:15;;;;;;;3.67;2.00;;;;;;;-4.78;66.37;100961.53;5056842;28;20064;-65
2021/12/26 01:13:43;;;;;;;3.05;1.80;;;;;;;-4.78;65.94;100964.09;5046162;28;20044;-64
2021/12/26 01:16:11;;;;;;;3.17;1.70;;;;;;;-4.86;65.72;100969.00;5044398;28;20507;-64
2021/12/26 01:18:43;;;;;;;7.45;2.03;;;;;;;-4.88;66.21;100960.34;5046468;28;20037;-64
2021/12/26 01:21:20;;;;;;;3.85;1.67;;;;;;;-4.89;66.19;100956.03;5045800;28;20025;-65
2021/12/26 01:23:48;;;;;;;1.58;1.42;;;;;;;-4.89;65.93;100968.91;5045788;28;20040;-64
2021/12/26 01:26:13;;;;;;;2.42;1.90;;;;;;;-4.89;65.49;100966.34;5045412;28;20112;-66
2021/12/26 01:28:39;;;;;;;4.10;1.65;;;;;;;-4.91;65.25;100970.53;5045865;28;20113;-65
2021/12/26 01:31:05;;;;;;;3.22;1.90;;;;;;;-4.90;65.21;100969.72;5046820;28;20398;-65
2021/12/26 01:33:30;;;;;;;3.92;2.08;;;;;;;-4.91;65.38;100964.53;5052161;28;20036;-63
2021/12/26 01:35:56;;;;;;;6.15;2.25;;;;;;;-4.92;65.67;100963.66;5070023;28;20456;-64
2021/12/26 01:38:22;;;;;;;2.47;1.52;;;;;;;-4.97;65.57;100960.94;5069014;28;20029;-64
2021/12/26 01:40:53;;;;;;;3.42;2.47;;;;;;;-4.94;65.12;100962.72;5069490;28;20123;-64
2021/12/26 01:43:24;;;;;;;2.72;1.50;;;;;;;-4.87;65.61;100956.09;5069386;28;20063;-64
2021/12/26 01:45:50;;;;;;;3.10;1.70;;;;;;;-4.79;65.24;100952.06;5071630;28;20027;-64
2021/12/26 01:48:17;;;;;;;2.88;1.90;;;;;;;-4.78;64.87;100960.66;5084154;28;20013;-65
2021/12/26 01:50:43;;;;;;;3.22;1.80;;;;;;;-4.82;64.92;100957.97;5059556;28;20035;-66
2021/12/26 01:53:10;;;;;;;2.97;1.77;;;;;;;-4.83;64.80;100958.81;5052609;28;20016;-65
2021/12/26 01:55:41;;;;;;;8.13;1.63;;;;;;;-4.82;63.73;100946.81;5050067;28;20441;-64
2021/12/26 01:58:10;;;;;;;1.95;1.65;;;;;;;-4.87;64.34;100948.38;5057475;28;20481;-64
2021/12/26 02:00:37;;;;;;;4.25;1.73;;;;;;;-4.86;64.50;100953.56;5069724;28;20063;-63
2021/12/26 02:03:03;;;;;;;3.92;2.03;;;;;;;-4.87;65.02;100950.94;5066806;28;20483;-63
2021/12/26 02:05:28;;;;;;;2.60;1.88;;;;;;;-4.93;64.69;100941.34;5069273;28;20043;-64
2021/12/26 02:07:53;;;;;;;3.72;2.13;;;;;;;-4.91;64.40;100938.84;5068170;28;20060;-64
2021/12/26 02:10:19;;;;;;;4.95;1.88;;;;;;;-4.95;64.46;100938.75;5065545;28;20072;-65
2021/12/26 02:12:44;;;;;;;4.25;1.83;;;;;;;-4.94;64.76;100937.03;5060958;28;20029;-60
2021/12/26 02:15:10;;;;;;;3.05;1.75;;;;;;;-4.98;64.36;100933.50;5069652;28;20075;-64
2021/12/26 02:17:36;;;;;;;1.70;1.60;;;;;;;-5.00;64.21;100929.16;5067647;28;20027;-64
2021/12/26 02:20:38;;;;;;;4.88;1.92;;;;;;;-4.97;64.48;100935.22;5067812;28;20103;-65
2021/12/26 02:23:18;;;;;;;3.38;2.00;;;;;;;-5.00;63.91;100924.84;5049080;28;20029;-66
2021/12/26 02:28:12;;;;;;;5.38;1.83;;;;;;;-5.03;64.40;100934.19;5048908;28;20025;-65
2021/12/26 02:30:37;;;;;;;2.53;1.55;;;;;;;-5.03;64.34;100924.75;5060468;28;20076;-66
2021/12/26 02:33:04;;;;;;;2.25;2.05;;;;;;;-5.03;64.18;100934.19;5067858;28;20055;-65
2021/12/26 02:35:29;;;;;;;2.67;1.63;;;;;;;-5.11;64.42;100932.25;5065412;28;20055;-65
2021/12/26 02:37:55;;;;;;;3.03;2.13;;;;;;;-5.08;64.45;100926.31;5068674;28;20020;-64
2021/12/26 02:40:20;;;;;;;5.97;2.28;;;;;;;-5.13;64.71;100922.72;5068144;28;20024;-64
2021/12/26 02:42:46;;;;;;;2.28;1.63;;;;;;;-5.17;64.32;100921.75;5067884;28;20033;-64
2021/12/26 02:45:12;;;;;;;2.55;2.08;;;;;;;-5.21;65.03;100910.50;5067907;28;20028;-64
2021/12/26 02:47:39;;;;;;;4.18;1.98;;;;;;;-5.20;64.67;100919.09;5068431;28;20478;-64
2021/12/26 02:50:08;;;;;;;3.20;1.60;;;;;;;-5.15;65.18;100914.97;5066402;28;20786;-61
2021/12/26 02:52:33;;;;;;;;;;;;;;;-5.13;65.32;100915.88;5067928;28;20028;-65
2021/12/26 02:54:59;;;;;;;1.40;1.30;;;;;;;-5.07;65.22;100907.50;5066916;28;19919;-65
2021/12/26 02:57:24;;;;;;;3.72;1.80;;;;;;;-5.11;65.51;100910.81;5068933;28;20036;-65
2021/12/26 02:59:50;;;;;;;3.35;1.80;;;;;;;-5.14;65.84;100915.84;5079065;28;20478;-64
2021/12/26 03:02:15;;;;;;;2.08;1.52;;;;;;;-5.14;65.68;100910.69;5087937;28;20133;-66
2021/12/26 03:04:41;;;;;;;3.33;1.70;;;;;;;-5.12;66.33;100909.91;5087966;28;20032;-66
2021/12/26 03:07:06;;;;;;;1.83;1.60;;;;;;;-5.08;66.34;100905.75;5088283;28;20053;-64
2021/12/26 03:09:40;;;;;;;6.20;1.60;;;;;;;-5.10;66.49;100903.16;5064623;28;20021;-64
2021/12/26 03:12:06;;;;;;;2.85;1.92;;;;;;;-5.08;66.54;100895.47;5047145;28;20044;-63
2021/12/26 03:14:32;;;;;;;2.38;1.42;;;;;;;-5.05;67.00;100881.84;5046536;28;20049;-64
2021/12/26 03:17:00;;;;;;;2.10;1.65;;;;;;;-5.03;66.81;100880.22;5047791;28;20392;-64
2021/12/26 03:19:25;;;;;;;2.83;1.87;;;;;;;-4.99;66.45;100876.91;5058988;28;20028;-63
2021/12/26 03:21:51;;;;;;;3.22;1.90;;;;;;;-5.00;66.16;100877.75;5068031;28;20039;-63
2021/12/26 03:24:17;;;;;;;2.35;1.58;;;;;;;-5.00;65.63;100877.75;5067178;28;20040;-64
2021/12/26 03:26:42;;;;;;;2.78;1.60;;;;;;;-4.97;65.62;100868.41;5068227;28;20036;-66
2021/12/26 03:29:07;;;;;;;3.50;1.63;;;;;;;-4.95;65.21;100864.19;5066382;28;20082;-65
2021/12/26 03:31:33;;;;;;;2.63;1.60;;;;;;;-4.93;65.82;100871.97;5065772;28;20028;-64
2021/12/26 03:33:58;;;;;;;4.57;1.90;;;;;;;-4.91;65.05;100862.56;5066882;28;20563;-64
2021/12/26 03:36:23;;;;;;;1.77;1.63;;;;;;;-4.93;65.17;100874.53;5066394;28;20020;-64
2021/12/26 03:38:49;;;;;;;3.55;1.83;;;;;;;-4.90;64.93;100874.63;5066206;28;20497;-65
2021/12/26 03:41:14;;;;;;;2.15;1.67;;;;;;;-4.89;64.80;100871.22;5068331;28;20025;-65
2021/12/26 03:43:39;;;;;;;2.38;1.70;;;;;;;-4.91;65.49;100877.16;5067751;28;20037;-65
2021/12/26 03:46:05;;;;;;;2.72;2.00;;;;;;;-4.88;65.49;100883.22;5046329;28;20405;-66
2021/12/26 03:48:30;;;;;;;3.83;2.20;;;;;;;-4.94;65.04;100883.03;5066163;28;20459;-65
2021/12/26 03:50:57;;;;;;;2.70;1.60;;;;;;;-4.90;65.11;100882.34;5066457;28;20059;-66
2021/12/26 03:53:23;;;;;;;2.85;1.67;;;;;;;-4.88;64.77;100882.38;5065818;28;20485;-65
2021/12/26 03:55:48;;;;;;;2.45;1.50;;;;;;;-4.89;65.40;100881.50;5065947;28;20030;-65
2021/12/26 03:58:14;;;;;;;1.92;1.60;;;;;;;-4.97;65.33;100882.97;5066701;28;20025;-65
2021/12/26 04:00:40;;;;;;;4.32;1.83;;;;;;;-5.03;65.48;100877.63;5064973;28;20426;-65
2021/12/26 04:03:05;;;;;;;2.22;1.77;;;;;;;-5.05;65.12;100881.84;5066045;28;20062;-65
2021/12/26 04:05:31;;;;;;;2.15;1.70;;;;;;;-5.09;65.73;100874.03;5075268;28;20024;-64
2021/12/26 04:07:56;;;;;;;3.25;1.70;;;;;;;-5.09;65.83;100868.06;5086176;28;20035;-65
2021/12/26 04:10:22;;;;;;;2.38;1.80;;;;;;;-5.13;65.95;100867.06;5086103;28;20032;-66
2021/12/26 04:12:50;;;;;;;2.13;1.85;;;;;;;-5.15;66.46;100868.72;5068858;28;20055;-66
2021/12/26 04:15:20;;;;;;;3.90;2.00;;;;;;;-5.16;66.45;100872.09;5086189;28;20075;-66
2021/12/26 04:17:46;;;;;;;2.80;1.90;;;;;;;-5.19;66.48;100866.88;5086219;28;20070;-65
2021/12/26 04:20:12;;;;;;;4.32;1.73;;;;;;;-5.22;66.93;100871.91;5085944;28;20059;-66
2021/12/26 04:22:37;;;;;;;4.18;1.77;;;;;;;-5.20;66.49;100871.13;5065521;28;20032;-65
2021/12/26 04:25:05;;;;;;;1.92;1.75;;;;;;;-5.15;66.78;100862.72;5065875;28;20085;-65
2021/12/26 04:27:30;;;;;;;3.65;2.13;;;;;;;-5.12;67.37;100866.22;5075010;28;20032;-65
2021/12/26 04:29:55;;;;;;;3.72;1.65;;;;;;;-4.99;66.13;100866.63;5085098;28;20028;-65
2021/12/26 04:32:21;;;;;;;4.85;1.80;;;;;;;-4.97;65.82;100865.00;5075502;28;20032;-64
2021/12/26 04:34:47;;;;;;;3.03;2.08;;;;;;;-4.99;66.22;100864.94;5064549;28;20029;-65
2021/12/26 04:37:12;;;;;;;2.70;1.70;;;;;;;-5.13;66.17;100861.03;5064146;28;20024;-64
2021/12/26 04:39:38;;;;;;;4.28;1.95;;;;;;;-5.21;66.55;100861.69;5064868;28;20035;-64
2021/12/26 04:42:04;;;;;;;2.67;1.58;;;;;;;-5.03;65.95;100857.94;5064300;28;20536;-64
2021/12/26 04:44:29;;;;;;;2.92;1.95;;;;;;;-4.89;65.58;100854.91;5064556;28;20024;-66
2021/12/26 04:46:55;;;;;;;3.42;2.10;;;;;;;-4.82;65.41;100849.13;5063886;28;20097;-67
2021/12/26 04:49:20;;;;;;;3.20;1.70;;;;;;;-4.80;64.95;100846.59;5065070;28;20078;-66
2021/12/26 04:51:46;;;;;;;1.95;1.67;;;;;;;-4.74;64.79;100846.78;5064533;28;20032;-68
2021/12/26 04:54:11;;;;;;;2.97;1.80;;;;;;;-4.90;64.55;100843.78;5066115;28;20031;-64
2021/12/26 04:56:36;;;;;;;2.60;1.77;;;;;;;-5.16;66.28;100845.53;5064920;28;20188;-65
2021/12/26 04:59:03;;;;;;;2.47;1.65;;;;;;;-5.26;66.48;100836.69;5064772;28;20040;-66
2021/12/26 05:01:29;;;;;;;3.97;1.70;;;;;;;-5.26;66.63;100846.97;5064058;28;20025;-66
2021/12/26 05:03:54;;;;;;;2.75;1.73;;;;;;;-5.28;66.89;100851.16;5064952;28;20086;-65
2021/12/26 05:06:19;;;;;;;8.55;2.20;;;;;;;-5.26;67.48;100842.69;5045882;28;20330;-66
2021/12/26 05:08:45;;;;;;;1.92;1.70;;;;;;;-5.26;67.69;100846.97;5064356;28;20032;-65
2021/12/26 05:11:10;;;;;;;2.95;1.77;;;;;;;-5.27;67.56;100842.66;5065031;28;20530;-65
2021/12/26 05:13:35;;;;;;;1.98;1.60;;;;;;;-5.28;67.74;100840.88;5063799;28;20036;-64
2021/12/26 05:16:01;;;;;;;2.30;1.58;;;;;;;-5.30;67.94;100838.25;5063927;28;20124;-64
2021/12/26 05:18:26;;;;;;;3.58;1.80;;;;;;;-5.33;68.13;100839.06;5080162;28;20040;-65
2021/12/26 05:20:52;;;;;;;4.53;1.80;;;;;;;-5.33;67.56;100841.63;5084822;28;20039;-65
2021/12/26 05:23:17;;;;;;;1.98;1.75;;;;;;;-5.38;67.84;100838.06;5070052;28;20033;-65
2021/12/26 05:25:42;;;;;;;2.25;1.70;;;;;;;-5.37;68.51;100839.78;5065156;28;20432;-65
2021/12/26 05:28:08;;;;;;;3.67;1.77;;;;;;;-5.34;67.76;100839.88;5064931;28;20052;-66
2021/12/26 05:30:33;;;;;;;3.28;2.17;;;;;;;-5.38;68.02;100835.47;5063748;28;20020;-65
2021/12/26 05:32:58;;;;;;;2.30;1.70;;;;;;;-5.45;68.31;100836.97;5063724;28;20459;-64
2021/12/26 05:35:24;;;;;;;4.07;1.65;;;;;;;-5.43;67.83;100839.59;5064335;28;20127;-66
2021/12/26 05:37:49;;;;;;;4.43;1.80;;;;;;;-5.50;68.59;100841.09;5063676;28;20060;-65
2021/12/26 05:40:15;;;;;;;2.15;1.67;;;;;;;-5.50;69.02;100837.66;5065572;28;20017;-65
2021/12/26 05:42:41;;;;;;;3.85;1.92;;;;;;;-5.49;69.74;100829.13;5065236;28;20025;-65
2021/12/26 05:45:08;;;;;;;3.08;1.90;;;;;;;-5.53;69.81;100832.41;5063573;28;20021;-64
2021/12/26 05:47:34;;;;;;;2.92;1.80;;;;;;;-5.53;69.74;100817.88;5064098;28;20025;-64
2021/12/26 05:49:59;;;;;;;2.78;2.30;;;;;;;-5.46;69.15;100819.81;5064845;28;20268;-66
2021/12/26 05:52:25;;;;;;;2.75;2.05;;;;;;;-5.47;69.54;100812.94;5046751;28;20103;-66
2021/12/26 05:54:51;;;;;;;3.75;1.90;;;;;;;-5.41;69.53;100817.41;5063089;28;20066;-66
2021/12/26 05:57:17;;;;;;;4.72;2.28;;;;;;;-5.51;70.01;100813.66;5065142;28;20028;-65
2021/12/26 05:59:42;;;;;;;2.38;1.77;;;;;;;-5.60;69.90;100821.94;5076967;28;20024;-67
2021/12/26 06:02:08;;;;;;;2.65;2.03;;;;;;;-5.60;70.37;100811.66;5084097;28;20032;-64
2021/12/26 06:04:33;;;;;;;2.00;1.77;;;;;;;-5.59;70.52;100816.00;5084212;28;20024;-64
2021/12/26 06:06:59;;;;;;;2.40;1.80;;;;;;;-5.63;70.42;100814.13;5067703;28;20111;-65
2021/12/26 06:09:24;;;;;;;2.25;1.88;;;;;;;-5.63;70.61;100809.00;5062272;28;20345;-64
2021/12/26 06:11:50;;;;;;;7.32;2.10;;;;;;;-5.58;70.66;100811.72;5063891;28;20049;-65
2021/12/26 06:14:15;;;;;;;3.75;2.15;;;;;;;-5.55;70.58;100811.81;5063736;28;20139;-66
2021/12/26 06:16:41;;;;;;;3.17;2.05;;;;;;;-5.55;70.67;100809.25;5065456;28;20024;-64
2021/12/26 06:19:06;;;;;;;3.42;1.95;;;;;;;-5.59;70.64;100818.56;5067524;28;20448;-66
2021/12/26 06:21:32;;;;;;;1.98;1.75;;;;;;;-5.60;71.38;100819.38;5071577;28;20158;-65
2021/12/26 06:23:57;;;;;;;2.42;2.13;;;;;;;-5.61;70.45;100825.34;5067135;28;20562;-65
2021/12/26 06:26:24;;;;;;;2.13;1.92;;;;;;;-5.66;71.13;100819.16;5065301;28;20074;-64
2021/12/26 06:28:49;;;;;;;2.90;2.15;;;;;;;-5.65;71.33;100823.50;5060269;28;20471;-65
2021/12/26 06:31:15;;;;;;;2.67;1.83;;;;;;;-5.64;71.27;100824.34;5068083;28;20032;-65
2021/12/26 06:33:41;;;;;;;4.38;2.30;;;;;;;-5.67;71.38;100812.28;5068967;28;20031;-64
2021/12/26 06:36:08;;;;;;;1.98;1.80;;;;;;;-5.62;70.65;100813.34;5067909;28;20035;-65
2021/12/26 06:38:35;;;;;;;2.42;1.90;;;;;;;-5.65;70.71;100820.06;5068644;28;20021;-65
2021/12/26 06:41:02;;;;;;;3.03;2.50;;;;;;;-5.62;70.57;100809.88;5053022;28;20088;-64
2021/12/26 06:43:27;;;;;;;2.95;2.00;;;;;;;-5.55;70.80;100814.38;5047085;28;20037;-65
2021/12/26 06:45:53;;;;;;;4.40;2.38;;;;;;;-5.53;70.08;100814.44;5057500;28;20390;-63
2021/12/26 06:48:19;;;;;;;2.85;2.10;;;;;;;-5.52;70.00;100800.75;5068073;28;20063;-63
2021/12/26 06:50:45;;;;;;;2.55;2.13;;;;;;;-5.47;69.48;100810.38;5074766;28;20463;-62
2021/12/26 06:53:11;;;;;;;3.63;2.20;;;;;;;-5.48;69.95;100802.63;5071909;28;20031;-64
2021/12/26 06:55:37;;;;;;;3.45;1.92;;;;;;;-5.50;69.93;100800.00;5066522;28;20112;-66
2021/12/26 06:58:02;;;;;;;2.90;2.45;;;;;;;-5.53;69.34;100799.91;5066744;28;20215;-66
2021/12/26 07:00:28;;;;;;;2.63;1.90;;;;;;;-5.47;69.10;100799.22;5064838;28;20132;-65
2021/12/26 07:02:53;;;;;;;3.97;2.10;;;;;;;-5.46;69.21;100803.53;5061690;28;20380;-66
2021/12/26 07:05:19;;;;;;;2.30;1.75;;;;;;;-5.49;69.34;100795.72;5066445;28;20027;-67
2021/12/26 07:07:44;;;;;;;2.30;2.10;;;;;;;-5.49;68.92;100796.63;5067083;28;20114;-65
2021/12/26 07:10:10;;;;;;;16.70;2.50;;;;;;;-5.47;69.00;100797.53;5065661;28;20430;-67
2021/12/26 07:12:35;;;;;;;2.83;2.33;;;;;;;-5.50;68.98;100799.13;5068143;28;20398;-67
2021/12/26 07:15:00;;;;;;;6.35;2.53;;;;;;;-5.56;69.38;100798.94;5066642;28;20048;-67
2021/12/26 07:17:26;;;;;;;2.78;2.20;;;;;;;-5.54;69.54;100794.72;5059686;28;20108;-65
2021/12/26 07:19:51;;;;;;;6.82;2.45;;;;;;;-5.54;69.46;100787.03;5066789;28;20075;-69
2021/12/26 07:22:17;;;;;;;2.53;1.98;;;;;;;-5.56;69.20;100784.41;5067117;28;20481;-66
2021/12/26 07:24:43;;;;;;;3.10;2.30;;;;;;;-5.54;69.21;100792.16;5067680;28;20534;-70
2021/12/26 07:27:11;;;;;;;3.20;2.20;;;;;;;-5.49;69.22;100795.72;5067460;28;20024;-76
2021/12/26 07:29:37;;;;;;;2.30;2.08;;;;;;;-5.49;68.92;100800.88;5067070;28;20025;-73
2021/12/26 07:32:02;;;;;;;3.72;2.17;;;;;;;-5.52;69.54;100800.75;5065820;28;20384;-64
2021/12/26 07:34:27;;;;;;;3.28;2.40;;;;;;;-5.51;69.21;100797.41;5067136;28;20032;-68
2021/12/26 07:36:53;;;;;;;3.50;2.28;;;;;;;-5.45;69.38;100792.41;5056534;28;20033;-67
2021/12/26 07:39:18;;;;;;;3.50;2.03;;;;;;;-5.49;69.10;100803.44;5066767;28;20024;-72
2021/12/26 07:41:43;;;;;;;2.00;1.70;;;;;;;-5.49;69.64;100800.88;5067852;28;20131;-68
2021/12/26 07:44:09;;;;;;;2.20;2.00;;;;;;;-5.47;69.90;100809.50;5055988;28;20128;-69
2021/12/26 07:46:34;;;;;;;2.35;2.00;;;;;;;-5.47;69.56;100805.25;5061087;28;20035;-65
2021/12/26 07:48:59;;;;;;;2.17;1.98;;;;;;;-5.41;69.97;100799.44;5067815;28;20013;-64
2021/12/26 07:51:25;;;;;;;3.25;2.08;;;;;;;-5.35;69.53;100803.88;5067606;28;20093;-64
2021/12/26 07:53:51;;;;;;;5.25;1.90;;;;;;;-5.28;69.00;100805.81;5066948;28;20113;-66
2021/12/26 07:56:17;;;;;;;2.25;2.05;;;;;;;-5.22;68.59;100803.44;5067825;28;20028;-66
2021/12/26 07:58:42;;;;;;;3.13;1.88;;;;;;;-5.21;68.79;100812.00;5067945;28;20384;-66
2021/12/26 08:01:08;;;;;;;3.40;2.08;;;;;;;-5.19;68.75;100807.78;5064670;28;20017;-64
2021/12/26 08:03:34;;;;;;;4.70;2.50;;;;;;;-5.22;69.08;100807.69;5067154;28;20033;-65
2021/12/26 08:06:00;;;;;;;3.53;2.47;;;;;;;-5.21;68.81;100801.75;5066215;28;20440;-65
2021/12/26 08:08:25;;;;;;;3.72;2.10;;;;;;;-5.12;68.98;100801.16;5066482;28;20024;-67
2021/12/26 08:10:51;;;;;;;2.78;2.10;;;;;;;-5.08;69.06;100795.25;5066436;28;20024;-66
2021/12/26 08:13:16;;;;;;;2.42;2.22;;;;;;;-5.05;68.80;100802.19;5066192;28;20086;-66
2021/12/26 08:15:42;;;;;;;6.32;2.45;;;;;;;-5.07;68.91;100797.88;5065796;28;20035;-68
2021/12/26 08:18:07;;;;;;;2.22;1.88;;;;;;;-5.06;68.83;100796.16;5066427;28;20028;-68
2021/12/26 08:20:32;;;;;;;6.50;2.30;;;;;;;-5.07;69.00;100800.44;5066237;28;20037;-70
2021/12/26 08:22:58;;;;;;;3.17;2.30;;;;;;;-5.00;69.08;100800.63;5065619;28;20071;-73
2021/12/26 08:25:24;;;;;;;3.80;2.50;;;;;;;-4.96;68.64;100802.47;5065023;28;20036;-67
2021/12/26 08:27:49;;;;;;;4.80;2.53;;;;;;;-4.96;69.20;100802.47;5065951;28;20028;-67
2021/12/26 08:30:14;;;;;;;4.70;2.65;;;;;;;-4.95;69.18;100801.63;5065134;28;20101;-66
2021/12/26 08:32:42;;;;;;;4.60;2.00;;;;;;;-4.92;68.95;100804.28;5066299;28;20047;-68
2021/12/26 08:35:08;;;;;;;6.22;2.40;;;;;;;-4.89;68.80;100809.53;5066341;28;20364;-63
2021/12/26 08:37:35;;;;;;;5.10;2.38;;;;;;;-4.87;68.77;100799.28;5066895;28;20031;-69
2021/12/26 08:40:00;;;;;;;2.35;1.80;;;;;;;-4.84;68.85;100801.94;5059850;28;20563;-66
2021/12/26 08:42:25;;;;;;;5.40;2.95;;;;;;;-4.84;68.49;100800.22;5055407;28;20024;-76
2021/12/26 08:44:52;;;;;;;3.95;2.30;;;;;;;-4.78;67.99;100798.69;5058683;28;20054;-67
2021/12/26 08:47:18;;;;;;;3.22;2.10;;;;;;;-4.74;68.06;100800.50;5066728;28;20023;-68
2021/12/26 08:49:43;;;;;;;2.20;2.00;;;;;;;-4.73;67.88;100802.25;5066353;28;20036;-68
2021/12/26 08:52:09;;;;;;;3.25;1.95;;;;;;;-4.68;67.84;100798.09;5061334;28;20719;-67
2021/12/26 08:54:35;;;;;;;4.43;2.30;;;;;;;-4.64;67.97;100804.22;5056107;28;20130;-66
2021/12/26 08:57:02;;;;;;;2.80;2.38;;;;;;;-4.60;67.78;100806.88;5054494;28;20328;-66
2021/12/26 08:59:30;;;;;;;3.22;1.90;;;;;;;-4.59;67.84;100820.63;5056171;28;20025;-67
2021/12/26 09:01:57;;;;;;;3.05;2.15;;;;;;;-4.51;67.83;100814.03;5059580;28;20081;-63
2021/12/26 09:04:22;;;;;;;4.00;2.22;;;;;;;-4.47;67.60;100810.69;5065681;28;20032;-61
2021/12/26 09:06:48;;;;;;;4.85;2.47;;;;;;;-4.45;67.60;100814.16;5065744;28;20383;-62
2021/12/26 09:09:13;;;;;;;3.40;2.63;;;;;;;-4.42;67.95;100818.53;5066408;28;20376;-62
2021/12/26 09:11:38;;;;;;;3.03;2.03;;;;;;;-4.35;67.34;100810.16;5065649;28;20549;-64
2021/12/26 09:14:04;;;;;;;3.13;2.35;;;;;;;-4.25;67.41;100807.84;5065350;28;20386;-61
2021/12/26 09:16:33;;;;;;;3.95;2.40;;;;;;;-4.18;67.48;100802.88;5065137;28;20024;-61
2021/12/26 09:19:00;;;;;;;7.57;2.95;;;;;;;-4.11;67.16;100806.50;5054461;28;20062;-64
2021/12/26 09:21:25;;;;;;;4.90;2.53;;;;;;;-4.09;66.90;100809.97;5055593;28;20344;-63
2021/12/26 09:23:51;;;;;;;2.85;2.30;;;;;;;-3.99;66.68;100805.94;5061285;28;20575;-62
2021/12/26 09:26:16;;;;;;;3.08;2.30;;;;;;;-3.99;66.87;100805.06;5045275;28;20492;-70
2021/12/26 09:28:41;;;;;;;7.95;2.55;;;;;;;-4.00;67.20;100811.03;5035745;28;20009;-70
2021/12/26 09:31:07;;;;;;;4.97;2.80;;;;;;;-3.94;67.27;100801.75;5037670;28;20646;-70
2021/12/26 09:33:33;;;;;;;2.92;2.22;;;;;;;-3.86;67.38;100806.22;5034423;28;20044;-69
2021/12/26 09:36:00;;;;;;;3.53;2.90;;;;;;;-3.81;67.28;100808.09;5040166;28;20033;-69
2021/12/26 09:38:25;;;;;;;4.45;2.60;;;;;;;-3.78;67.22;100803.84;5023797;28;20031;-71
2021/12/26 09:40:51;;;;;;;2.75;2.22;;;;;;;-3.72;68.00;100814.31;5023658;28;20021;-69
2021/12/26 09:43:16;;;;;;;4.93;2.70;;;;;;;-3.66;67.48;100808.44;5029895;28;20140;-70
2021/12/26 09:45:41;;;;;;;4.68;2.50;;;;;;;-3.48;66.67;100810.56;5029517;28;20033;-61
2021/12/26 09:48:07;;;;;;;3.33;2.63;;;;;;;-3.38;66.50;100801.34;5034847;28;20127;-62
2021/12/26 09:50:32;;;;;;;3.25;2.78;;;;;;;-3.32;67.10;100799.78;5035961;28;20021;-64
2021/12/26 09:52:58;;;;;;;2.78;2.25;;;;;;;-3.20;66.60;100793.16;5038555;28;20056;-64
2021/12/26 09:55:27;;;;;;;3.28;2.65;;;;;;;-3.09;66.35;100789.13;5039548;28;20578;-62
2021/12/26 09:57:53;;;;;;;3.55;2.70;;;;;;;-3.00;66.15;100780.72;5035431;28;20048;-61
2021/12/26 10:00:41;;;;;;;6.13;2.97;;;;;;;-2.83;66.17;100787.94;5038964;28;20501;-62
2021/12/26 10:03:21;;;;;;;5.53;2.53;;;;;;;-2.70;65.76;100768.41;5039539;28;20032;-68
2021/12/26 10:06:00;;;;;;;5.40;2.58;;;;;;;-2.62;65.96;100769.41;5027567;28;20021;-64
2021/12/26 10:08:26;;;;;;;4.75;2.67;;;;;;;-2.54;65.89;100765.28;5031178;28;20033;-61
2021/12/26 10:11:14;;;;;;;3.95;2.55;;;;;;;-2.37;65.65;100762.16;5027116;28;20021;-60
2021/12/26 10:13:48;;;;;;;3.63;2.72;;;;;;;-2.41;65.54;100762.91;5026168;28;20037;-63
2021/12/26 10:16:15;;;;;;;5.70;2.83;;;;;;;-2.35;65.70;100750.13;5029623;28;20028;-63
2021/12/26 10:18:41;;;;;;;5.72;3.30;;;;;;;-2.26;65.76;100753.75;5046939;28;20040;-63
2021/12/26 10:21:22;;;;;;;3.95;3.00;;;;;;;-2.19;65.56;100759.03;5044223;28;20074;-63
2021/12/26 10:23:48;;;;;;;4.43;2.90;;;;;;;-2.17;65.64;100752.16;5042718;28;20102;-64
2021/12/26 10:26:24;;;;;;;5.28;3.35;;;;;;;-2.17;65.47;100743.53;5036764;28;20581;-65
2021/12/26 10:29:12;;;;;;;6.47;3.60;;;;;;;-2.08;66.18;100733.38;5033564;28;20024;-64
2021/12/26 10:31:43;;;;;;;6.93;3.20;;;;;;;-1.96;66.31;100737.03;5035764;28;20405;-64
2021/12/26 10:34:40;;;;;;;5.22;3.45;;;;;;;-1.89;66.33;100730.22;5039510;28;20282;-62
2021/12/26 10:37:09;;;;;;;3.72;3.00;;;;;;;-1.69;65.83;100723.66;5029963;28;20049;-66
2021/12/26 10:39:38;;;;;;;4.22;2.90;;;;;;;-1.67;65.48;100721.09;5046887;28;20739;-67
2021/12/26 10:42:07;;;;;;;6.05;3.00;;;;;;;-1.70;65.98;100728.78;5045956;28;20025;-66
2021/12/26 10:44:36;;;;;;;4.13;3.00;;;;;;;-1.70;66.13;100721.03;5036251;28;20036;-65
2021/12/26 10:47:16;;;;;;;5.55;3.40;;;;;;;-1.56;66.08;100710.91;5039902;28;20904;-66
2021/12/26 10:50:07;;;;;;;3.30;2.97;;;;;;;-1.49;66.33;100714.44;5038460;28;20139;-65
2021/12/26 10:52:41;;;;;;;5.22;3.80;;;;;;;-1.45;66.59;100700.72;5037589;28;20030;-65
2021/12/26 10:55:13;;;;;;;7.57;3.55;;;;;;;-1.46;66.35;100714.50;5038729;28;20029;-64
2021/12/26 10:57:40;;;;;;;9.60;4.47;;;;;;;-1.40;66.13;100704.25;5027689;28;20033;-63
2021/12/26 11:00:08;;;;;;;5.18;3.25;;;;;;;-1.28;66.04;100709.59;5035028;28;20078;-64
2021/12/26 11:02:34;;;;;;;4.43;3.45;;;;;;;-1.23;66.25;100714.81;5039767;28;20067;-67
2021/12/26 11:05:07;;;;;;;5.35;3.47;;;;;;;-1.22;66.03;100713.09;5036452;28;20037;-65
2021/12/26 11:08:00;;;;;;;5.45;3.28;;;;;;;-1.18;66.23;100700.22;5036284;28;20499;-65
2021/12/26 11:10:25;;;;;;;7.88;4.07;;;;;;;-1.05;65.71;100696.06;5036942;28;20368;-66
2021/12/26 11:12:54;;;;;;;9.95;3.90;;;;;;;-0.89;65.53;100691.06;5043990;28;20052;-64
2021/12/26 11:15:22;;;;;;;5.35;3.53;;;;;;;-0.92;65.51;100691.03;5033792;28;20517;-65
2021/12/26 11:17:58;;;;;;;5.90;3.60;;;;;;;-0.81;65.32;100686.81;5040691;28;20019;-65
2021/12/26 11:20:31;;;;;;;6.65;4.28;;;;;;;-0.81;65.44;100692.00;5067719;28;20166;-63
2021/12/26 11:22:57;;;;;;;7.07;3.97;;;;;;;-0.83;65.45;100696.31;5060043;28;20028;-63
2021/12/26 11:25:23;;;;;;;5.07;4.00;;;;;;;-0.91;65.80;100705.69;5061018;28;20035;-63